sensor_id;sensor_type;location;lat;lon;timestamp;pressure;altitude;pressure_sealevel;temperature;humidity
63181;BME280;49273;37.772;-122.432;2022-10-16T00:01:40;100669.42;;;17.04;83.46
63181;BME280;49273;37.772;-122.432;2022-10-16T00:04:09;100668.28;;;17.22;82.53
63181;BME280;49273;37.772;-122.432;2022-10-16T00:06:37;100666.83;;;17.11;82.65
63181;BME280;49273;37.772;-122.432;2022-10-16T00:09:06;100667.61;;;17.20;82.61
63181;BME280;49273;37.772;-122.432;2022-10-16T00:11:37;100667.95;;;17.23;82.53
63181;BME280;49273;37.772;-122.432;2022-10-16T00:14:09;100666.56;;;17.21;82.67
63181;BME280;49273;37.772;-122.432;2022-10-16T00:16:38;100668.75;;;17.27;82.64
63181;BME280;49273;37.772;-122.432;2022-10-16T00:19:07;100667.74;;;17.41;82.02
63181;BME280;49273;37.772;-122.432;2022-10-16T00:21:37;100676.36;;;17.61;81.05
63181;BME280;49273;37.772;-122.432;2022-10-16T00:24:07;100670.08;;;17.44;81.55
63181;BME280;49273;37.772;-122.432;2022-10-16T00:26:38;100672.19;;;17.70;80.40
63181;BME280;49273;37.772;-122.432;2022-10-16T00:29:09;100670.04;;;17.38;81.76
63181;BME280;49273;37.772;-122.432;2022-10-16T00:31:37;100663.67;;;17.08;82.64
63181;BME280;49273;37.772;-122.432;2022-10-16T00:34:05;100656.29;;;17.39;81.44
63181;BME280;49273;37.772;-122.432;2022-10-16T00:36:33;100661.25;;;17.27;81.64
63181;BME280;49273;37.772;-122.432;2022-10-16T00:39:02;100654.18;;;17.30;81.66
63181;BME280;49273;37.772;-122.432;2022-10-16T00:41:31;100655.85;;;17.31;81.53
63181;BME280;49273;37.772;-122.432;2022-10-16T00:44:02;100657.32;;;17.33;81.27
63181;BME280;49273;37.772;-122.432;2022-10-16T00:46:35;100655.04;;;17.22;81.68
63181;BME280;49273;37.772;-122.432;2022-10-16T00:49:08;100657.96;;;17.23;81.54
63181;BME280;49273;37.772;-122.432;2022-10-16T00:51:39;100660.53;;;17.31;81.32
63181;BME280;49273;37.772;-122.432;2022-10-16T00:54:10;100658.45;;;17.38;80.62
63181;BME280;49273;37.772;-122.432;2022-10-16T00:56:39;100653.08;;;17.37;81.10
63181;BME280;49273;37.772;-122.432;2022-10-16T00:59:15;100651.91;;;17.33;80.91
63181;BME280;49273;37.772;-122.432;2022-10-16T01:01:43;100658.47;;;17.32;81.23
63181;BME280;49273;37.772;-122.432;2022-10-16T01:04:11;100663.80;;;17.51;80.52
63181;BME280;49273;37.772;-122.432;2022-10-16T01:06:46;100667.04;;;17.51;80.07
63181;BME280;49273;37.772;-122.432;2022-10-16T01:09:21;100666.99;;;17.45;80.36
63181;BME280;49273;37.772;-122.432;2022-10-16T01:12:01;100668.35;;;17.64;79.68
63181;BME280;49273;37.772;-122.432;2022-10-16T01:14:39;100668.67;;;17.53;80.33
63181;BME280;49273;37.772;-122.432;2022-10-16T01:17:13;100667.11;;;17.36;80.85
63181;BME280;49273;37.772;-122.432;2022-10-16T01:20:00;100662.71;;;17.31;81.23
63181;BME280;49273;37.772;-122.432;2022-10-16T01:22:37;100664.46;;;17.16;81.76
63181;BME280;49273;37.772;-122.432;2022-10-16T01:25:11;100664.20;;;17.26;81.79
63181;BME280;49273;37.772;-122.432;2022-10-16T01:27:46;100669.24;;;17.60;79.94
63181;BME280;49273;37.772;-122.432;2022-10-16T01:30:20;100670.19;;;17.33;81.09
63181;BME280;49273;37.772;-122.432;2022-10-16T01:32:52;100673.20;;;17.44;80.78
63181;BME280;49273;37.772;-122.432;2022-10-16T01:35:26;100676.31;;;17.40;81.27
63181;BME280;49273;37.772;-122.432;2022-10-16T01:38:02;100675.10;;;17.25;81.89
63181;BME280;49273;37.772;-122.432;2022-10-16T01:40:33;100680.10;;;17.29;81.68
63181;BME280;49273;37.772;-122.432;2022-10-16T01:43:04;100678.84;;;17.33;81.41
63181;BME280;49273;37.772;-122.432;2022-10-16T01:45:35;100676.47;;;17.16;82.24
63181;BME280;49273;37.772;-122.432;2022-10-16T01:48:05;100681.51;;;17.32;81.85
63181;BME280;49273;37.772;-122.432;2022-10-16T01:50:37;100680.01;;;17.55;80.98
63181;BME280;49273;37.772;-122.432;2022-10-16T01:53:09;100676.35;;;17.43;81.25
63181;BME280;49273;37.772;-122.432;2022-10-16T01:55:40;100681.35;;;17.56;80.55
63181;BME280;49273;37.772;-122.432;2022-10-16T01:58:11;100685.38;;;17.59;80.51
63181;BME280;49273;37.772;-122.432;2022-10-16T02:00:42;100684.16;;;17.22;81.60
63181;BME280;49273;37.772;-122.432;2022-10-16T02:03:13;100683.39;;;17.25;81.53
63181;BME280;49273;37.772;-122.432;2022-10-16T02:05:47;100683.11;;;17.26;81.69
63181;BME280;49273;37.772;-122.432;2022-10-16T02:08:17;100684.76;;;17.39;80.99
63181;BME280;49273;37.772;-122.432;2022-10-16T02:10:45;100684.61;;;17.31;81.16
63181;BME280;49273;37.772;-122.432;2022-10-16T02:13:21;100683.60;;;17.46;80.82
63181;BME280;49273;37.772;-122.432;2022-10-16T02:15:50;100685.29;;;17.33;81.00
63181;BME280;49273;37.772;-122.432;2022-10-16T02:18:18;100684.00;;;17.23;81.85
63181;BME280;49273;37.772;-122.432;2022-10-16T02:20:58;100685.75;;;17.25;82.03
63181;BME280;49273;37.772;-122.432;2022-10-16T02:23:36;100693.00;;;17.50;81.06
63181;BME280;49273;37.772;-122.432;2022-10-16T02:26:09;100692.97;;;17.53;80.70
63181;BME280;49273;37.772;-122.432;2022-10-16T02:28:44;100691.84;;;17.17;82.11
63181;BME280;49273;37.772;-122.432;2022-10-16T02:31:16;100696.09;;;17.43;81.50
63181;BME280;49273;37.772;-122.432;2022-10-16T02:33:46;100703.24;;;17.56;80.62
63181;BME280;49273;37.772;-122.432;2022-10-16T02:36:14;100704.25;;;17.63;80.13
63181;BME280;49273;37.772;-122.432;2022-10-16T02:38:42;100703.86;;;17.52;80.77
63181;BME280;49273;37.772;-122.432;2022-10-16T02:41:11;100703.81;;;17.58;80.33
63181;BME280;49273;37.772;-122.432;2022-10-16T02:43:39;100707.41;;;17.64;80.01
63181;BME280;49273;37.772;-122.432;2022-10-16T02:46:08;100711.34;;;17.54;80.50
63181;BME280;49273;37.772;-122.432;2022-10-16T02:48:36;100708.44;;;17.56;80.46
63181;BME280;49273;37.772;-122.432;2022-10-16T02:51:04;100706.43;;;17.66;79.94
63181;BME280;49273;37.772;-122.432;2022-10-16T02:53:32;100708.01;;;17.58;79.92
63181;BME280;49273;37.772;-122.432;2022-10-16T02:56:00;100704.62;;;17.82;78.76
63181;BME280;49273;37.772;-122.432;2022-10-16T02:58:28;100706.17;;;17.67;79.36
63181;BME280;49273;37.772;-122.432;2022-10-16T03:00:57;100704.52;;;17.34;80.52
63181;BME280;49273;37.772;-122.432;2022-10-16T03:03:25;100703.90;;;17.57;79.90
63181;BME280;49273;37.772;-122.432;2022-10-16T03:05:53;100707.75;;;17.46;79.91
63181;BME280;49273;37.772;-122.432;2022-10-16T03:08:21;100709.52;;;17.68;78.97
63181;BME280;49273;37.772;-122.432;2022-10-16T03:10:48;100717.50;;;17.71;78.99
63181;BME280;49273;37.772;-122.432;2022-10-16T03:13:17;100716.12;;;17.57;79.14
63181;BME280;49273;37.772;-122.432;2022-10-16T03:15:45;100717.02;;;17.83;78.37
63181;BME280;49273;37.772;-122.432;2022-10-16T03:18:13;100721.70;;;17.64;79.28
63181;BME280;49273;37.772;-122.432;2022-10-16T03:20:43;100716.79;;;17.81;78.63
63181;BME280;49273;37.772;-122.432;2022-10-16T03:23:11;100719.62;;;17.72;78.98
63181;BME280;49273;37.772;-122.432;2022-10-16T03:25:45;100720.66;;;17.86;78.39
63181;BME280;49273;37.772;-122.432;2022-10-16T03:28:13;100722.46;;;17.68;79.15
63181;BME280;49273;37.772;-122.432;2022-10-16T03:30:42;100723.90;;;17.58;79.40
63181;BME280;49273;37.772;-122.432;2022-10-16T03:33:10;100723.53;;;17.75;78.73
63181;BME280;49273;37.772;-122.432;2022-10-16T03:35:39;100722.37;;;17.79;78.46
63181;BME280;49273;37.772;-122.432;2022-10-16T03:38:07;100721.90;;;17.71;79.09
63181;BME280;49273;37.772;-122.432;2022-10-16T03:40:35;100718.09;;;17.74;78.84
63181;BME280;49273;37.772;-122.432;2022-10-16T03:43:03;100717.16;;;17.82;78.45
63181;BME280;49273;37.772;-122.432;2022-10-16T03:45:31;100723.25;;;17.61;79.19
63181;BME280;49273;37.772;-122.432;2022-10-16T03:47:58;100718.94;;;17.72;78.71
63181;BME280;49273;37.772;-122.432;2022-10-16T03:50:27;100723.24;;;17.63;78.95
63181;BME280;49273;37.772;-122.432;2022-10-16T03:52:54;100725.45;;;17.80;78.38
63181;BME280;49273;37.772;-122.432;2022-10-16T03:55:23;100723.29;;;17.80;77.53
63181;BME280;49273;37.772;-122.432;2022-10-16T03:57:51;100725.70;;;17.75;77.92
63181;BME280;49273;37.772;-122.432;2022-10-16T04:00:19;100726.13;;;17.85;77.74
63181;BME280;49273;37.772;-122.432;2022-10-16T04:02:47;100724.87;;;17.84;77.94
63181;BME280;49273;37.772;-122.432;2022-10-16T04:05:15;100728.41;;;17.85;77.85
63181;BME280;49273;37.772;-122.432;2022-10-16T04:07:42;100728.12;;;17.77;78.05
63181;BME280;49273;37.772;-122.432;2022-10-16T04:10:11;100731.03;;;17.79;77.77
63181;BME280;49273;37.772;-122.432;2022-10-16T04:12:39;100730.52;;;17.87;77.32
63181;BME280;49273;37.772;-122.432;2022-10-16T04:15:09;100732.92;;;17.90;77.27
63181;BME280;49273;37.772;-122.432;2022-10-16T04:17:37;100732.03;;;17.84;77.41
63181;BME280;49273;37.772;-122.432;2022-10-16T04:20:06;100734.21;;;17.78;77.94
63181;BME280;49273;37.772;-122.432;2022-10-16T04:22:33;100738.42;;;17.61;78.81
63181;BME280;49273;37.772;-122.432;2022-10-16T04:25:02;100746.16;;;17.73;78.49
63181;BME280;49273;37.772;-122.432;2022-10-16T04:27:30;100742.50;;;17.72;78.42
63181;BME280;49273;37.772;-122.432;2022-10-16T04:29:58;100735.45;;;17.87;77.48
63181;BME280;49273;37.772;-122.432;2022-10-16T04:32:27;100738.17;;;17.83;77.76
63181;BME280;49273;37.772;-122.432;2022-10-16T04:34:55;100742.85;;;17.71;78.17
63181;BME280;49273;37.772;-122.432;2022-10-16T04:37:24;100737.78;;;17.84;77.65
63181;BME280;49273;37.772;-122.432;2022-10-16T04:39:52;100745.80;;;17.77;77.74
63181;BME280;49273;37.772;-122.432;2022-10-16T04:42:21;100752.92;;;17.64;78.34
63181;BME280;49273;37.772;-122.432;2022-10-16T04:44:49;100755.76;;;17.51;79.45
63181;BME280;49273;37.772;-122.432;2022-10-16T04:47:17;100752.39;;;17.43;79.58
63181;BME280;49273;37.772;-122.432;2022-10-16T04:49:46;100758.42;;;17.52;79.16
63181;BME280;49273;37.772;-122.432;2022-10-16T04:52:13;100763.38;;;17.74;78.47
63181;BME280;49273;37.772;-122.432;2022-10-16T04:54:41;100758.85;;;17.57;78.70
63181;BME280;49273;37.772;-122.432;2022-10-16T04:57:10;100756.58;;;17.48;78.88
63181;BME280;49273;37.772;-122.432;2022-10-16T04:59:38;100760.22;;;17.60;77.75
63181;BME280;49273;37.772;-122.432;2022-10-16T05:02:07;100766.40;;;17.69;77.68
63181;BME280;49273;37.772;-122.432;2022-10-16T05:04:35;100766.51;;;17.60;78.21
63181;BME280;49273;37.772;-122.432;2022-10-16T05:07:03;100767.65;;;17.72;77.49
63181;BME280;49273;37.772;-122.432;2022-10-16T05:09:30;100766.90;;;17.59;78.03
63181;BME280;49273;37.772;-122.432;2022-10-16T05:11:59;100771.32;;;17.66;77.83
63181;BME280;49273;37.772;-122.432;2022-10-16T05:14:27;100771.72;;;17.80;77.20
63181;BME280;49273;37.772;-122.432;2022-10-16T05:16:54;100776.71;;;17.53;79.00
63181;BME280;49273;37.772;-122.432;2022-10-16T05:19:22;100779.68;;;17.72;78.31
63181;BME280;49273;37.772;-122.432;2022-10-16T05:21:50;100783.81;;;17.91;77.33
63181;BME280;49273;37.772;-122.432;2022-10-16T05:24:19;100786.93;;;17.75;77.98
63181;BME280;49273;37.772;-122.432;2022-10-16T05:26:48;100785.00;;;17.73;77.89
63181;BME280;49273;37.772;-122.432;2022-10-16T05:29:16;100785.73;;;17.78;77.46
63181;BME280;49273;37.772;-122.432;2022-10-16T05:31:43;100787.90;;;17.70;78.31
63181;BME280;49273;37.772;-122.432;2022-10-16T05:34:12;100788.57;;;17.85;77.53
63181;BME280;49273;37.772;-122.432;2022-10-16T05:36:40;100789.07;;;18.00;77.01
63181;BME280;49273;37.772;-122.432;2022-10-16T05:39:08;100788.18;;;18.11;76.30
63181;BME280;49273;37.772;-122.432;2022-10-16T05:41:36;100789.98;;;18.05;76.48
63181;BME280;49273;37.772;-122.432;2022-10-16T05:44:05;100784.29;;;18.18;75.93
63181;BME280;49273;37.772;-122.432;2022-10-16T05:46:33;100787.09;;;17.89;76.29
63181;BME280;49273;37.772;-122.432;2022-10-16T05:49:01;100782.64;;;18.00;76.23
63181;BME280;49273;37.772;-122.432;2022-10-16T05:51:29;100778.94;;;18.08;75.86
63181;BME280;49273;37.772;-122.432;2022-10-16T05:53:57;100776.48;;;18.18;75.20
63181;BME280;49273;37.772;-122.432;2022-10-16T05:56:25;100780.07;;;18.04;75.91
63181;BME280;49273;37.772;-122.432;2022-10-16T05:58:53;100778.10;;;18.17;75.45
63181;BME280;49273;37.772;-122.432;2022-10-16T06:01:21;100781.90;;;18.18;75.52
63181;BME280;49273;37.772;-122.432;2022-10-16T06:03:50;100781.79;;;18.02;75.87
63181;BME280;49273;37.772;-122.432;2022-10-16T06:06:20;100783.51;;;17.96;76.21
63181;BME280;49273;37.772;-122.432;2022-10-16T06:08:50;100784.53;;;18.11;75.70
63181;BME280;49273;37.772;-122.432;2022-10-16T06:11:19;100786.74;;;18.08;75.53
63181;BME280;49273;37.772;-122.432;2022-10-16T06:13:50;100792.60;;;18.08;75.61
63181;BME280;49273;37.772;-122.432;2022-10-16T06:16:19;100791.61;;;18.21;75.18
63181;BME280;49273;37.772;-122.432;2022-10-16T06:18:47;100797.94;;;18.29;74.94
63181;BME280;49273;37.772;-122.432;2022-10-16T06:21:17;100801.57;;;18.16;75.49
63181;BME280;49273;37.772;-122.432;2022-10-16T06:23:46;100801.73;;;18.27;74.92
63181;BME280;49273;37.772;-122.432;2022-10-16T06:26:20;100800.74;;;18.24;74.62
63181;BME280;49273;37.772;-122.432;2022-10-16T06:28:48;100798.07;;;18.17;74.72
63181;BME280;49273;37.772;-122.432;2022-10-16T06:31:17;100796.36;;;18.25;74.51
63181;BME280;49273;37.772;-122.432;2022-10-16T06:33:45;100798.33;;;18.30;74.45
63181;BME280;49273;37.772;-122.432;2022-10-16T06:36:16;100796.24;;;18.28;74.37
63181;BME280;49273;37.772;-122.432;2022-10-16T06:38:44;100800.14;;;18.21;74.40
63181;BME280;49273;37.772;-122.432;2022-10-16T06:41:14;100800.45;;;18.32;74.15
63181;BME280;49273;37.772;-122.432;2022-10-16T06:43:43;100801.68;;;18.36;74.03
63181;BME280;49273;37.772;-122.432;2022-10-16T06:46:14;100798.64;;;18.29;74.27
63181;BME280;49273;37.772;-122.432;2022-10-16T06:48:42;100801.71;;;18.10;74.75
63181;BME280;49273;37.772;-122.432;2022-10-16T06:51:11;100800.94;;;18.09;74.70
63181;BME280;49273;37.772;-122.432;2022-10-16T06:53:41;100797.95;;;17.99;75.11
63181;BME280;49273;37.772;-122.432;2022-10-16T06:56:10;100795.94;;;17.95;75.41
63181;BME280;49273;37.772;-122.432;2022-10-16T06:58:40;100790.76;;;17.84;76.01
63181;BME280;49273;37.772;-122.432;2022-10-16T07:01:08;100786.10;;;17.88;75.90
63181;BME280;49273;37.772;-122.432;2022-10-16T07:03:37;100785.36;;;18.00;75.47
63181;BME280;49273;37.772;-122.432;2022-10-16T07:06:07;100783.09;;;17.89;75.87
63181;BME280;49273;37.772;-122.432;2022-10-16T07:08:37;100784.36;;;17.99;75.54
63181;BME280;49273;37.772;-122.432;2022-10-16T07:11:07;100788.41;;;17.87;75.61
63181;BME280;49273;37.772;-122.432;2022-10-16T07:13:37;100792.92;;;18.03;75.40
63181;BME280;49273;37.772;-122.432;2022-10-16T07:16:06;100794.63;;;17.98;75.19
63181;BME280;49273;37.772;-122.432;2022-10-16T07:18:34;100792.86;;;18.09;74.77
63181;BME280;49273;37.772;-122.432;2022-10-16T07:21:04;100794.16;;;18.06;74.94
63181;BME280;49273;37.772;-122.432;2022-10-16T07:23:33;100798.42;;;18.01;75.34
63181;BME280;49273;37.772;-122.432;2022-10-16T07:26:01;100796.24;;;17.96;75.50
63181;BME280;49273;37.772;-122.432;2022-10-16T07:28:30;100801.17;;;17.98;75.64
63181;BME280;49273;37.772;-122.432;2022-10-16T07:31:01;100801.76;;;17.76;76.47
63181;BME280;49273;37.772;-122.432;2022-10-16T07:33:29;100800.47;;;17.85;76.09
63181;BME280;49273;37.772;-122.432;2022-10-16T07:35:57;100805.33;;;17.90;75.85
63181;BME280;49273;37.772;-122.432;2022-10-16T07:38:25;100807.43;;;17.88;75.85
63181;BME280;49273;37.772;-122.432;2022-10-16T07:40:57;100813.20;;;17.95;75.50
63181;BME280;49273;37.772;-122.432;2022-10-16T07:43:30;100817.73;;;18.06;75.28
63181;BME280;49273;37.772;-122.432;2022-10-16T07:45:59;100812.54;;;17.96;75.11
63181;BME280;49273;37.772;-122.432;2022-10-16T07:48:29;100815.94;;;17.85;75.62
63181;BME280;49273;37.772;-122.432;2022-10-16T07:50:58;100811.21;;;17.82;75.71
63181;BME280;49273;37.772;-122.432;2022-10-16T07:53:26;100810.57;;;17.91;75.23
63181;BME280;49273;37.772;-122.432;2022-10-16T07:55:57;100813.79;;;17.89;75.44
63181;BME280;49273;37.772;-122.432;2022-10-16T07:58:25;100811.03;;;17.87;75.80
63181;BME280;49273;37.772;-122.432;2022-10-16T08:00:53;100812.93;;;18.04;75.36
63181;BME280;49273;37.772;-122.432;2022-10-16T08:03:21;100812.59;;;17.97;75.44
63181;BME280;49273;37.772;-122.432;2022-10-16T08:05:50;100807.54;;;17.93;76.06
63181;BME280;49273;37.772;-122.432;2022-10-16T08:08:19;100806.11;;;17.78;76.40
63181;BME280;49273;37.772;-122.432;2022-10-16T08:10:47;100806.17;;;17.74;76.50
63181;BME280;49273;37.772;-122.432;2022-10-16T08:13:15;100808.32;;;17.75;76.50
63181;BME280;49273;37.772;-122.432;2022-10-16T08:15:43;100811.08;;;17.76;76.70
63181;BME280;49273;37.772;-122.432;2022-10-16T08:18:12;100814.86;;;17.69;76.63
63181;BME280;49273;37.772;-122.432;2022-10-16T08:20:41;100820.39;;;17.82;76.29
63181;BME280;49273;37.772;-122.432;2022-10-16T08:23:11;100818.75;;;17.75;76.54
63181;BME280;49273;37.772;-122.432;2022-10-16T08:25:40;100819.55;;;17.56;77.61
63181;BME280;49273;37.772;-122.432;2022-10-16T08:28:10;100821.79;;;17.64;77.45
63181;BME280;49273;37.772;-122.432;2022-10-16T08:30:38;100819.27;;;17.59;77.71
63181;BME280;49273;37.772;-122.432;2022-10-16T08:33:06;100823.18;;;17.66;77.41
63181;BME280;49273;37.772;-122.432;2022-10-16T08:35:34;100823.35;;;17.86;76.85
63181;BME280;49273;37.772;-122.432;2022-10-16T08:38:03;100820.68;;;17.79;77.01
63181;BME280;49273;37.772;-122.432;2022-10-16T08:40:33;100821.91;;;17.72;76.53
63181;BME280;49273;37.772;-122.432;2022-10-16T08:43:16;100822.57;;;17.73;76.51
63181;BME280;49273;37.772;-122.432;2022-10-16T08:46:05;100820.20;;;17.62;77.23
63181;BME280;49273;37.772;-122.432;2022-10-16T08:48:43;100826.89;;;17.80;76.76
63181;BME280;49273;37.772;-122.432;2022-10-16T08:51:19;100825.70;;;17.62;78.08
63181;BME280;49273;37.772;-122.432;2022-10-16T08:53:52;100832.54;;;17.55;78.64
63181;BME280;49273;37.772;-122.432;2022-10-16T08:56:22;100835.65;;;17.66;78.21
63181;BME280;49273;37.772;-122.432;2022-10-16T08:58:52;100838.89;;;17.63;78.55
63181;BME280;49273;37.772;-122.432;2022-10-16T09:01:22;100841.34;;;17.51;79.05
63181;BME280;49273;37.772;-122.432;2022-10-16T09:04:07;100839.16;;;17.68;78.17
63181;BME280;49273;37.772;-122.432;2022-10-16T09:06:46;100836.75;;;17.46;78.68
63181;BME280;49273;37.772;-122.432;2022-10-16T09:09:32;100840.67;;;17.56;77.94
63181;BME280;49273;37.772;-122.432;2022-10-16T09:12:10;100842.98;;;17.57;78.14
63181;BME280;49273;37.772;-122.432;2022-10-16T09:14:49;100850.06;;;17.63;77.64
63181;BME280;49273;37.772;-122.432;2022-10-16T09:17:29;100856.63;;;17.79;76.87
63181;BME280;49273;37.772;-122.432;2022-10-16T09:20:09;100858.24;;;17.67;77.50
63181;BME280;49273;37.772;-122.432;2022-10-16T09:22:41;100859.61;;;17.73;77.22
63181;BME280;49273;37.772;-122.432;2022-10-16T09:25:13;100858.88;;;17.70;77.25
63181;BME280;49273;37.772;-122.432;2022-10-16T09:27:43;100854.96;;;17.66;77.58
63181;BME280;49273;37.772;-122.432;2022-10-16T09:30:15;100855.35;;;17.55;77.84
63181;BME280;49273;37.772;-122.432;2022-10-16T09:32:45;100860.76;;;17.80;76.93
63181;BME280;49273;37.772;-122.432;2022-10-16T09:35:18;100860.63;;;17.79;76.89
63181;BME280;49273;37.772;-122.432;2022-10-16T09:37:49;100855.68;;;17.82;76.72
63181;BME280;49273;37.772;-122.432;2022-10-16T09:40:26;100847.40;;;17.65;77.57
63181;BME280;49273;37.772;-122.432;2022-10-16T09:43:11;100844.59;;;17.48;78.74
63181;BME280;49273;37.772;-122.432;2022-10-16T09:45:54;100847.21;;;17.67;78.09
63181;BME280;49273;37.772;-122.432;2022-10-16T09:48:25;100850.56;;;17.66;77.83
63181;BME280;49273;37.772;-122.432;2022-10-16T09:50:59;100853.44;;;17.74;77.19
63181;BME280;49273;37.772;-122.432;2022-10-16T09:53:44;100857.38;;;17.66;77.22
63181;BME280;49273;37.772;-122.432;2022-10-16T09:56:22;100859.97;;;17.55;77.68
63181;BME280;49273;37.772;-122.432;2022-10-16T09:58:51;100857.20;;;17.60;77.68
63181;BME280;49273;37.772;-122.432;2022-10-16T10:01:22;100863.48;;;17.62;77.53
63181;BME280;49273;37.772;-122.432;2022-10-16T10:03:51;100862.87;;;17.61;77.54
63181;BME280;49273;37.772;-122.432;2022-10-16T10:06:26;100863.71;;;17.56;77.74
63181;BME280;49273;37.772;-122.432;2022-10-16T10:08:57;100867.45;;;17.68;77.01
63181;BME280;49273;37.772;-122.432;2022-10-16T10:11:53;100867.23;;;17.65;77.28
63181;BME280;49273;37.772;-122.432;2022-10-16T10:14:26;100870.67;;;17.64;76.57
63181;BME280;49273;37.772;-122.432;2022-10-16T10:17:12;100870.87;;;17.66;76.59
63181;BME280;49273;37.772;-122.432;2022-10-16T10:19:44;100872.40;;;17.80;75.90
63181;BME280;49273;37.772;-122.432;2022-10-16T10:22:19;100875.28;;;17.71;76.04
63181;BME280;49273;37.772;-122.432;2022-10-16T10:25:01;100876.41;;;17.85;75.32
63181;BME280;49273;37.772;-122.432;2022-10-16T10:27:42;100875.79;;;17.75;75.23
63181;BME280;49273;37.772;-122.432;2022-10-16T10:30:19;100878.61;;;17.94;74.57
63181;BME280;49273;37.772;-122.432;2022-10-16T10:33:08;100880.95;;;17.73;75.53
63181;BME280;49273;37.772;-122.432;2022-10-16T10:35:44;100880.46;;;17.64;75.83
63181;BME280;49273;37.772;-122.432;2022-10-16T10:38:25;100880.79;;;17.79;75.56
63181;BME280;49273;37.772;-122.432;2022-10-16T10:41:04;100887.03;;;17.96;74.81
63181;BME280;49273;37.772;-122.432;2022-10-16T10:43:47;100884.78;;;17.91;74.76
63181;BME280;49273;37.772;-122.432;2022-10-16T10:46:23;100890.20;;;18.01;74.52
63181;BME280;49273;37.772;-122.432;2022-10-16T10:49:16;100890.39;;;17.98;74.58
63181;BME280;49273;37.772;-122.432;2022-10-16T10:51:58;100889.26;;;18.09;74.23
63181;BME280;49273;37.772;-122.432;2022-10-16T10:54:36;100889.69;;;18.07;74.30
63181;BME280;49273;37.772;-122.432;2022-10-16T10:57:21;100889.99;;;17.99;74.16
63181;BME280;49273;37.772;-122.432;2022-10-16T11:00:01;100891.05;;;17.86;74.75
63181;BME280;49273;37.772;-122.432;2022-10-16T11:02:37;100888.81;;;17.90;74.93
63181;BME280;49273;37.772;-122.432;2022-10-16T11:05:28;100891.69;;;18.13;73.95
63181;BME280;49273;37.772;-122.432;2022-10-16T11:08:00;100889.90;;;17.90;74.80
63181;BME280;49273;37.772;-122.432;2022-10-16T11:10:34;100892.75;;;18.12;74.09
63181;BME280;49273;37.772;-122.432;2022-10-16T11:13:15;100895.48;;;17.96;74.68
63181;BME280;49273;37.772;-122.432;2022-10-16T11:15:46;100900.14;;;17.82;75.06
63181;BME280;49273;37.772;-122.432;2022-10-16T11:18:19;100902.05;;;17.73;75.89
63181;BME280;49273;37.772;-122.432;2022-10-16T11:20:53;100908.26;;;17.79;75.94
63181;BME280;49273;37.772;-122.432;2022-10-16T11:23:26;100910.31;;;17.90;75.42
63181;BME280;49273;37.772;-122.432;2022-10-16T11:25:59;100914.75;;;17.72;76.55
63181;BME280;49273;37.772;-122.432;2022-10-16T11:28:33;100914.19;;;17.80;76.38
63181;BME280;49273;37.772;-122.432;2022-10-16T11:31:08;100912.75;;;17.85;76.04
63181;BME280;49273;37.772;-122.432;2022-10-16T11:33:39;100911.05;;;17.95;75.77
63181;BME280;49273;37.772;-122.432;2022-10-16T11:36:14;100908.52;;;17.83;75.65
63181;BME280;49273;37.772;-122.432;2022-10-16T11:38:51;100910.47;;;17.75;75.85
63181;BME280;49273;37.772;-122.432;2022-10-16T11:41:26;100909.72;;;17.70;76.12
63181;BME280;49273;37.772;-122.432;2022-10-16T11:44:12;100910.30;;;17.78;75.72
63181;BME280;49273;37.772;-122.432;2022-10-16T11:46:46;100910.90;;;17.88;75.37
63181;BME280;49273;37.772;-122.432;2022-10-16T11:49:19;100919.76;;;17.90;75.14
63181;BME280;49273;37.772;-122.432;2022-10-16T11:51:54;100924.73;;;17.82;75.04
63181;BME280;49273;37.772;-122.432;2022-10-16T11:54:32;100928.75;;;17.81;75.53
63181;BME280;49273;37.772;-122.432;2022-10-16T11:57:11;100929.98;;;17.81;75.23
63181;BME280;49273;37.772;-122.432;2022-10-16T11:59:45;100930.28;;;17.94;74.77
63181;BME280;49273;37.772;-122.432;2022-10-16T12:02:29;100928.47;;;17.79;75.44
63181;BME280;49273;37.772;-122.432;2022-10-16T12:05:09;100929.92;;;17.83;75.19
63181;BME280;49273;37.772;-122.432;2022-10-16T12:07:45;100929.96;;;17.80;74.98
63181;BME280;49273;37.772;-122.432;2022-10-16T12:10:21;100925.53;;;17.60;75.49
63181;BME280;49273;37.772;-122.432;2022-10-16T12:12:49;100930.91;;;17.75;75.13
63181;BME280;49273;37.772;-122.432;2022-10-16T12:15:22;100935.57;;;17.63;74.87
63181;BME280;49273;37.772;-122.432;2022-10-16T12:17:50;100939.78;;;17.66;75.04
63181;BME280;49273;37.772;-122.432;2022-10-16T12:20:24;100941.02;;;17.56;75.26
63181;BME280;49273;37.772;-122.432;2022-10-16T12:22:55;100940.53;;;17.63;74.98
63181;BME280;49273;37.772;-122.432;2022-10-16T12:25:26;100940.53;;;17.59;75.65
63181;BME280;49273;37.772;-122.432;2022-10-16T12:27:59;100945.52;;;17.82;75.04
63181;BME280;49273;37.772;-122.432;2022-10-16T12:30:30;100942.63;;;17.65;76.07
63181;BME280;49273;37.772;-122.432;2022-10-16T12:33:01;100943.40;;;17.72;75.66
63181;BME280;49273;37.772;-122.432;2022-10-16T12:35:32;100945.02;;;17.71;75.62
63181;BME280;49273;37.772;-122.432;2022-10-16T12:38:16;100951.60;;;17.57;76.29
63181;BME280;49273;37.772;-122.432;2022-10-16T12:40:46;100954.84;;;17.80;75.51
63181;BME280;49273;37.772;-122.432;2022-10-16T12:43:48;100959.10;;;17.86;75.35